sensor_id;sensor_type;location;lat;lon;timestamp;P1;durP1;ratioP1;P2;durP2;ratioP2
3841;SDS011;1936;47.074;15.336;2023-05-14T00:00:37;27.00;;;21.90;;
3841;SDS011;1936;47.074;15.336;2023-05-14T00:02:41;21.50;;;19.30;;
3841;SDS011;1936;47.074;15.336;2023-05-14T00:04:45;20.60;;;18.40;;
3841;SDS011;1936;47.074;15.336;2023-05-14T00:06:48;24.23;;;20.50;;
3841;SDS011;1936;47.074;15.336;2023-05-14T00:08:52;22.90;;;19.47;;
3841;SDS011;1936;47.074;15.336;2023-05-14T00:10:56;23.90;;;17.47;;
3841;SDS011;1936;47.074;15.336;2023-05-14T00:13:00;23.27;;;19.20;;
3841;SDS011;1936;47.074;15.336;2023-05-14T00:15:04;22.40;;;17.03;;
3841;SDS011;1936;47.074;15.336;2023-05-14T00:17:08;24.93;;;17.77;;
3841;SDS011;1936;47.074;15.336;2023-05-14T00:19:12;18.40;;;15.03;;
3841;SDS011;1936;47.074;15.336;2023-05-14T00:21:15;19.50;;;17.13;;
3841;SDS011;1936;47.074;15.336;2023-05-14T00:23:18;19.10;;;17.10;;
3841;SDS011;1936;47.074;15.336;2023-05-14T00:25:22;18.93;;;16.93;;
3841;SDS011;1936;47.074;15.336;2023-05-14T00:27:27;17.20;;;15.00;;
3841;SDS011;1936;47.074;15.336;2023-05-14T00:29:31;18.23;;;16.33;;
3841;SDS011;1936;47.074;15.336;2023-05-14T00:31:34;18.60;;;16.70;;
3841;SDS011;1936;47.074;15.336;2023-05-14T00:33:38;19.53;;;17.43;;
3841;SDS011;1936;47.074;15.336;2023-05-14T00:35:41;18.97;;;16.07;;
3841;SDS011;1936;47.074;15.336;2023-05-14T00:37:45;18.53;;;15.73;;
3841;SDS011;1936;47.074;15.336;2023-05-14T00:39:49;19.20;;;17.20;;
3841;SDS011;1936;47.074;15.336;2023-05-14T00:41:52;16.63;;;14.93;;
3841;SDS011;1936;47.074;15.336;2023-05-14T00:43:57;19.07;;;16.17;;
3841;SDS011;1936;47.074;15.336;2023-05-14T00:46:01;19.40;;;15.70;;
3841;SDS011;1936;47.074;15.336;2023-05-14T00:48:04;18.33;;;15.70;;
3841;SDS011;1936;47.074;15.336;2023-05-14T00:50:09;18.13;;;16.20;;
3841;SDS011;1936;47.074;15.336;2023-05-14T00:52:13;15.80;;;14.10;;
3841;SDS011;1936;47.074;15.336;2023-05-14T00:54:18;16.03;;;14.33;;
3841;SDS011;1936;47.074;15.336;2023-05-14T00:56:22;16.00;;;14.50;;
3841;SDS011;1936;47.074;15.336;2023-05-14T00:58:26;17.80;;;15.50;;
3841;SDS011;1936;47.074;15.336;2023-05-14T01:00:30;15.60;;;13.50;;
3841;SDS011;1936;47.074;15.336;2023-05-14T01:02:34;15.20;;;13.60;;
3841;SDS011;1936;47.074;15.336;2023-05-14T01:04:37;13.40;;;12.10;;
3841;SDS011;1936;47.074;15.336;2023-05-14T01:06:43;14.10;;;12.60;;
3841;SDS011;1936;47.074;15.336;2023-05-14T01:08:55;13.30;;;11.87;;
3841;SDS011;1936;47.074;15.336;2023-05-14T01:11:05;14.70;;;11.60;;
3841;SDS011;1936;47.074;15.336;2023-05-14T01:13:26;13.53;;;11.50;;
3841;SDS011;1936;47.074;15.336;2023-05-14T01:15:36;12.73;;;11.53;;
3841;SDS011;1936;47.074;15.336;2023-05-14T01:17:42;14.30;;;11.20;;
3841;SDS011;1936;47.074;15.336;2023-05-14T01:19:48;14.23;;;12.73;;
3841;SDS011;1936;47.074;15.336;2023-05-14T01:21:54;12.23;;;11.03;;
3841;SDS011;1936;47.074;15.336;2023-05-14T01:23:57;12.40;;;11.20;;
3841;SDS011;1936;47.074;15.336;2023-05-14T01:26:01;13.97;;;12.50;;
3841;SDS011;1936;47.074;15.336;2023-05-14T01:28:05;13.00;;;11.70;;
3841;SDS011;1936;47.074;15.336;2023-05-14T01:30:16;12.77;;;11.50;;
3841;SDS011;1936;47.074;15.336;2023-05-14T01:32:24;14.70;;;11.40;;
3841;SDS011;1936;47.074;15.336;2023-05-14T01:34:29;11.93;;;10.80;;
3841;SDS011;1936;47.074;15.336;2023-05-14T01:36:33;12.53;;;11.33;;
3841;SDS011;1936;47.074;15.336;2023-05-14T01:38:39;11.70;;;10.50;;
3841;SDS011;1936;47.074;15.336;2023-05-14T01:40:46;13.10;;;10.40;;
3841;SDS011;1936;47.074;15.336;2023-05-14T01:42:50;11.60;;;10.40;;
3841;SDS011;1936;47.074;15.336;2023-05-14T01:44:55;10.40;;;9.30;;
3841;SDS011;1936;47.074;15.336;2023-05-14T01:46:59;9.70;;;8.70;;
3841;SDS011;1936;47.074;15.336;2023-05-14T01:49:03;13.10;;;9.60;;
3841;SDS011;1936;47.074;15.336;2023-05-14T01:51:07;9.60;;;8.80;;
3841;SDS011;1936;47.074;15.336;2023-05-14T01:53:10;8.63;;;7.80;;
3841;SDS011;1936;47.074;15.336;2023-05-14T01:55:15;8.60;;;7.80;;
3841;SDS011;1936;47.074;15.336;2023-05-14T01:57:20;9.10;;;6.83;;
3841;SDS011;1936;47.074;15.336;2023-05-14T01:59:23;11.73;;;7.67;;
3841;SDS011;1936;47.074;15.336;2023-05-14T02:01:26;8.47;;;7.67;;
3841;SDS011;1936;47.074;15.336;2023-05-14T02:03:30;8.50;;;7.70;;
3841;SDS011;1936;47.074;15.336;2023-05-14T02:05:33;8.80;;;7.70;;
3841;SDS011;1936;47.074;15.336;2023-05-14T02:07:37;8.63;;;7.40;;
3841;SDS011;1936;47.074;15.336;2023-05-14T02:09:40;7.30;;;6.60;;
3841;SDS011;1936;47.074;15.336;2023-05-14T02:11:45;8.80;;;7.70;;
3841;SDS011;1936;47.074;15.336;2023-05-14T02:13:48;8.93;;;8.13;;
3841;SDS011;1936;47.074;15.336;2023-05-14T02:15:51;10.70;;;9.70;;
3841;SDS011;1936;47.074;15.336;2023-05-14T02:17:55;10.60;;;9.60;;
3841;SDS011;1936;47.074;15.336;2023-05-14T02:19:58;12.03;;;9.90;;
3841;SDS011;1936;47.074;15.336;2023-05-14T02:22:01;12.20;;;10.77;;
3841;SDS011;1936;47.074;15.336;2023-05-14T02:24:05;12.43;;;11.13;;
3841;SDS011;1936;47.074;15.336;2023-05-14T02:26:09;12.67;;;11.37;;
3841;SDS011;1936;47.074;15.336;2023-05-14T02:28:14;16.53;;;13.63;;
3841;SDS011;1936;47.074;15.336;2023-05-14T02:30:17;19.60;;;15.47;;
3841;SDS011;1936;47.074;15.336;2023-05-14T02:32:20;16.00;;;14.40;;
3841;SDS011;1936;47.074;15.336;2023-05-14T02:34:24;17.70;;;15.37;;
3841;SDS011;1936;47.074;15.336;2023-05-14T02:36:27;16.33;;;14.27;;
3841;SDS011;1936;47.074;15.336;2023-05-14T02:38:31;16.10;;;14.50;;
3841;SDS011;1936;47.074;15.336;2023-05-14T02:40:35;20.53;;;18.30;;
3841;SDS011;1936;47.074;15.336;2023-05-14T02:42:39;21.63;;;19.40;;
3841;SDS011;1936;47.074;15.336;2023-05-14T02:44:43;22.27;;;19.57;;
3841;SDS011;1936;47.074;15.336;2023-05-14T02:46:47;20.43;;;18.10;;
3841;SDS011;1936;47.074;15.336;2023-05-14T02:48:50;20.60;;;18.47;;
3841;SDS011;1936;47.074;15.336;2023-05-14T02:50:54;25.50;;;20.47;;
3841;SDS011;1936;47.074;15.336;2023-05-14T02:52:57;26.73;;;20.30;;
3841;SDS011;1936;47.074;15.336;2023-05-14T02:55:02;23.93;;;19.77;;
3841;SDS011;1936;47.074;15.336;2023-05-14T02:57:06;27.10;;;19.57;;
3841;SDS011;1936;47.074;15.336;2023-05-14T02:59:09;26.50;;;20.90;;
3841;SDS011;1936;47.074;15.336;2023-05-14T03:01:14;22.37;;;19.37;;
3841;SDS011;1936;47.074;15.336;2023-05-14T03:03:20;25.63;;;21.93;;
3841;SDS011;1936;47.074;15.336;2023-05-14T03:05:24;23.70;;;20.87;;
3841;SDS011;1936;47.074;15.336;2023-05-14T03:07:27;32.40;;;22.30;;
3841;SDS011;1936;47.074;15.336;2023-05-14T03:09:30;23.60;;;21.03;;
3841;SDS011;1936;47.074;15.336;2023-05-14T03:11:35;25.40;;;22.07;;
3841;SDS011;1936;47.074;15.336;2023-05-14T03:13:39;27.00;;;22.90;;
3841;SDS011;1936;47.074;15.336;2023-05-14T03:15:42;30.43;;;25.33;;
3841;SDS011;1936;47.074;15.336;2023-05-14T03:17:48;27.53;;;23.93;;
3841;SDS011;1936;47.074;15.336;2023-05-14T03:19:52;32.23;;;24.40;;
3841;SDS011;1936;47.074;15.336;2023-05-14T03:21:55;29.60;;;23.87;;
3841;SDS011;1936;47.074;15.336;2023-05-14T03:23:58;28.57;;;25.43;;
3841;SDS011;1936;47.074;15.336;2023-05-14T03:26:02;30.13;;;22.47;;
3841;SDS011;1936;47.074;15.336;2023-05-14T03:28:05;27.40;;;23.63;;
3841;SDS011;1936;47.074;15.336;2023-05-14T03:30:09;29.60;;;22.97;;
3841;SDS011;1936;47.074;15.336;2023-05-14T03:32:13;27.63;;;22.37;;
3841;SDS011;1936;47.074;15.336;2023-05-14T03:34:18;27.97;;;24.90;;
3841;SDS011;1936;47.074;15.336;2023-05-14T03:36:21;27.17;;;22.60;;
3841;SDS011;1936;47.074;15.336;2023-05-14T03:38:24;32.00;;;21.30;;
3841;SDS011;1936;47.074;15.336;2023-05-14T03:40:28;31.10;;;25.63;;
3841;SDS011;1936;47.074;15.336;2023-05-14T03:42:32;30.67;;;23.73;;
3841;SDS011;1936;47.074;15.336;2023-05-14T03:44:35;29.63;;;22.00;;
3841;SDS011;1936;47.074;15.336;2023-05-14T03:46:38;25.77;;;22.70;;
3841;SDS011;1936;47.074;15.336;2023-05-14T03:48:42;29.50;;;22.93;;
3841;SDS011;1936;47.074;15.336;2023-05-14T03:50:47;26.87;;;22.73;;
3841;SDS011;1936;47.074;15.336;2023-05-14T03:52:51;26.10;;;21.50;;
3841;SDS011;1936;47.074;15.336;2023-05-14T03:54:55;25.23;;;22.50;;
3841;SDS011;1936;47.074;15.336;2023-05-14T03:56:58;31.53;;;24.20;;
3841;SDS011;1936;47.074;15.336;2023-05-14T03:59:02;29.67;;;22.93;;
3841;SDS011;1936;47.074;15.336;2023-05-14T04:01:06;28.93;;;24.50;;
3841;SDS011;1936;47.074;15.336;2023-05-14T04:03:09;24.57;;;21.33;;
3841;SDS011;1936;47.074;15.336;2023-05-14T04:05:13;23.33;;;20.83;;
3841;SDS011;1936;47.074;15.336;2023-05-14T04:07:17;28.23;;;21.27;;
3841;SDS011;1936;47.074;15.336;2023-05-14T04:09:21;26.90;;;23.90;;
3841;SDS011;1936;47.074;15.336;2023-05-14T04:11:24;30.70;;;21.80;;
3841;SDS011;1936;47.074;15.336;2023-05-14T04:13:28;25.90;;;20.83;;
3841;SDS011;1936;47.074;15.336;2023-05-14T04:15:31;24.80;;;21.13;;
3841;SDS011;1936;47.074;15.336;2023-05-14T04:17:35;23.10;;;19.30;;
3841;SDS011;1936;47.074;15.336;2023-05-14T04:19:39;23.47;;;18.43;;
3841;SDS011;1936;47.074;15.336;2023-05-14T04:21:42;23.07;;;19.53;;
3841;SDS011;1936;47.074;15.336;2023-05-14T04:23:47;21.63;;;19.37;;
3841;SDS011;1936;47.074;15.336;2023-05-14T04:25:51;25.37;;;20.27;;
3841;SDS011;1936;47.074;15.336;2023-05-14T04:27:54;20.37;;;18.30;;
3841;SDS011;1936;47.074;15.336;2023-05-14T04:29:58;20.03;;;17.93;;
3841;SDS011;1936;47.074;15.336;2023-05-14T04:32:01;21.03;;;18.53;;
3841;SDS011;1936;47.074;15.336;2023-05-14T04:34:05;21.27;;;18.97;;
3841;SDS011;1936;47.074;15.336;2023-05-14T04:36:08;20.13;;;16.67;;
3841;SDS011;1936;47.074;15.336;2023-05-14T04:38:12;18.80;;;16.80;;
3841;SDS011;1936;47.074;15.336;2023-05-14T04:40:17;19.33;;;17.23;;
3841;SDS011;1936;47.074;15.336;2023-05-14T04:42:20;19.90;;;15.90;;
3841;SDS011;1936;47.074;15.336;2023-05-14T04:44:24;17.67;;;15.77;;
3841;SDS011;1936;47.074;15.336;2023-05-14T04:46:27;16.50;;;14.90;;
3841;SDS011;1936;47.074;15.336;2023-05-14T04:48:30;18.57;;;15.90;;
3841;SDS011;1936;47.074;15.336;2023-05-14T04:50:34;17.47;;;15.47;;
3841;SDS011;1936;47.074;15.336;2023-05-14T04:52:37;18.87;;;15.93;;
3841;SDS011;1936;47.074;15.336;2023-05-14T04:54:41;19.20;;;14.40;;
3841;SDS011;1936;47.074;15.336;2023-05-14T04:56:46;17.70;;;16.00;;
3841;SDS011;1936;47.074;15.336;2023-05-14T04:58:49;16.33;;;14.63;;
3841;SDS011;1936;47.074;15.336;2023-05-14T05:00:53;17.57;;;15.50;;
3841;SDS011;1936;47.074;15.336;2023-05-14T05:02:56;18.03;;;16.13;;
3841;SDS011;1936;47.074;15.336;2023-05-14T05:05:00;19.13;;;15.40;;
3841;SDS011;1936;47.074;15.336;2023-05-14T05:07:04;16.40;;;14.70;;
3841;SDS011;1936;47.074;15.336;2023-05-14T05:09:08;17.70;;;14.63;;
3841;SDS011;1936;47.074;15.336;2023-05-14T05:11:11;17.40;;;15.63;;
3841;SDS011;1936;47.074;15.336;2023-05-14T05:13:16;15.77;;;14.37;;
3841;SDS011;1936;47.074;15.336;2023-05-14T05:15:19;15.90;;;13.57;;
3841;SDS011;1936;47.074;15.336;2023-05-14T05:17:25;15.20;;;13.60;;
3841;SDS011;1936;47.074;15.336;2023-05-14T05:19:28;15.73;;;13.40;;
3841;SDS011;1936;47.074;15.336;2023-05-14T05:21:43;14.70;;;13.20;;
3841;SDS011;1936;47.074;15.336;2023-05-14T05:23:47;14.13;;;12.73;;
3841;SDS011;1936;47.074;15.336;2023-05-14T05:25:50;14.27;;;12.77;;
3841;SDS011;1936;47.074;15.336;2023-05-14T05:27:54;14.00;;;12.50;;
3841;SDS011;1936;47.074;15.336;2023-05-14T05:29:59;22.90;;;14.47;;
3841;SDS011;1936;47.074;15.336;2023-05-14T05:32:04;16.67;;;14.90;;
3841;SDS011;1936;47.074;15.336;2023-05-14T05:34:08;12.83;;;11.60;;
3841;SDS011;1936;47.074;15.336;2023-05-14T05:36:12;17.97;;;14.80;;
3841;SDS011;1936;47.074;15.336;2023-05-14T05:38:15;13.97;;;12.60;;
3841;SDS011;1936;47.074;15.336;2023-05-14T05:40:19;15.60;;;14.03;;
3841;SDS011;1936;47.074;15.336;2023-05-14T05:42:23;14.50;;;13.20;;
3841;SDS011;1936;47.074;15.336;2023-05-14T05:44:26;13.43;;;12.03;;
3841;SDS011;1936;47.074;15.336;2023-05-14T05:46:31;13.77;;;12.30;;
3841;SDS011;1936;47.074;15.336;2023-05-14T05:48:35;13.30;;;12.00;;
3841;SDS011;1936;47.074;15.336;2023-05-14T05:50:38;13.13;;;11.83;;
3841;SDS011;1936;47.074;15.336;2023-05-14T05:52:41;13.13;;;11.63;;
3841;SDS011;1936;47.074;15.336;2023-05-14T05:54:45;11.17;;;10.17;;
3841;SDS011;1936;47.074;15.336;2023-05-14T05:56:48;12.30;;;11.00;;
3841;SDS011;1936;47.074;15.336;2023-05-14T05:58:52;11.33;;;10.33;;
3841;SDS011;1936;47.074;15.336;2023-05-14T06:00:55;12.23;;;10.93;;
3841;SDS011;1936;47.074;15.336;2023-05-14T06:03:01;10.93;;;9.77;;
3841;SDS011;1936;47.074;15.336;2023-05-14T06:05:04;11.70;;;10.60;;
3841;SDS011;1936;47.074;15.336;2023-05-14T06:07:09;12.77;;;11.47;;
3841;SDS011;1936;47.074;15.336;2023-05-14T06:09:12;12.00;;;10.50;;
3841;SDS011;1936;47.074;15.336;2023-05-14T06:11:16;9.47;;;8.47;;
3841;SDS011;1936;47.074;15.336;2023-05-14T06:13:20;11.40;;;10.07;;
3841;SDS011;1936;47.074;15.336;2023-05-14T06:15:23;11.30;;;10.07;;
3841;SDS011;1936;47.074;15.336;2023-05-14T06:17:27;11.83;;;10.73;;
3841;SDS011;1936;47.074;15.336;2023-05-14T06:19:31;11.47;;;10.27;;
3841;SDS011;1936;47.074;15.336;2023-05-14T06:21:35;13.80;;;10.07;;
3841;SDS011;1936;47.074;15.336;2023-05-14T06:23:38;12.47;;;9.87;;
3841;SDS011;1936;47.074;15.336;2023-05-14T06:25:42;12.13;;;9.30;;
3841;SDS011;1936;47.074;15.336;2023-05-14T06:27:46;12.97;;;11.57;;
3841;SDS011;1936;47.074;15.336;2023-05-14T06:29:49;13.77;;;12.40;;
3841;SDS011;1936;47.074;15.336;2023-05-14T06:31:53;10.37;;;9.47;;
3841;SDS011;1936;47.074;15.336;2023-05-14T06:33:56;12.67;;;11.47;;
3841;SDS011;1936;47.074;15.336;2023-05-14T06:36:02;11.50;;;10.07;;
3841;SDS011;1936;47.074;15.336;2023-05-14T06:38:09;10.37;;;9.33;;
3841;SDS011;1936;47.074;15.336;2023-05-14T06:40:13;10.40;;;9.50;;
3841;SDS011;1936;47.074;15.336;2023-05-14T06:42:17;10.40;;;8.73;;
3841;SDS011;1936;47.074;15.336;2023-05-14T06:44:21;12.17;;;10.87;;
3841;SDS011;1936;47.074;15.336;2023-05-14T06:46:24;10.50;;;9.50;;
3841;SDS011;1936;47.074;15.336;2023-05-14T06:48:27;10.63;;;9.53;;
3841;SDS011;1936;47.074;15.336;2023-05-14T06:50:31;9.83;;;8.93;;
3841;SDS011;1936;47.074;15.336;2023-05-14T06:52:36;15.13;;;8.40;;
3841;SDS011;1936;47.074;15.336;2023-05-14T06:54:40;8.20;;;7.50;;
3841;SDS011;1936;47.074;15.336;2023-05-14T06:56:44;8.60;;;7.80;;
3841;SDS011;1936;47.074;15.336;2023-05-14T06:58:48;8.43;;;7.63;;
3841;SDS011;1936;47.074;15.336;2023-05-14T07:00:51;8.23;;;7.43;;
3841;SDS011;1936;47.074;15.336;2023-05-14T07:02:55;8.13;;;7.33;;
3841;SDS011;1936;47.074;15.336;2023-05-14T07:04:58;8.13;;;7.33;;
3841;SDS011;1936;47.074;15.336;2023-05-14T07:07:02;7.17;;;6.57;;
3841;SDS011;1936;47.074;15.336;2023-05-14T07:09:07;7.93;;;7.23;;
3841;SDS011;1936;47.074;15.336;2023-05-14T07:11:12;7.20;;;6.50;;
3841;SDS011;1936;47.074;15.336;2023-05-14T07:13:16;7.50;;;6.80;;
3841;SDS011;1936;47.074;15.336;2023-05-14T07:15:19;8.40;;;7.60;;
3841;SDS011;1936;47.074;15.336;2023-05-14T07:17:23;8.53;;;6.60;;
3841;SDS011;1936;47.074;15.336;2023-05-14T07:19:30;7.50;;;6.90;;
3841;SDS011;1936;47.074;15.336;2023-05-14T07:21:34;6.93;;;6.33;;
3841;SDS011;1936;47.074;15.336;2023-05-14T07:23:37;8.33;;;6.03;;
3841;SDS011;1936;47.074;15.336;2023-05-14T07:25:42;7.20;;;6.40;;
3841;SDS011;1936;47.074;15.336;2023-05-14T07:27:45;7.53;;;6.87;;
3841;SDS011;1936;47.074;15.336;2023-05-14T07:29:49;6.33;;;5.73;;
3841;SDS011;1936;47.074;15.336;2023-05-14T07:31:52;7.10;;;6.60;;
3841;SDS011;1936;47.074;15.336;2023-05-14T07:33:55;6.67;;;6.07;;
3841;SDS011;1936;47.074;15.336;2023-05-14T07:35:59;7.53;;;6.83;;
3841;SDS011;1936;47.074;15.336;2023-05-14T07:38:02;10.00;;;5.87;;
3841;SDS011;1936;47.074;15.336;2023-05-14T07:40:07;4.90;;;4.50;;
3841;SDS011;1936;47.074;15.336;2023-05-14T07:42:12;6.03;;;5.53;;
3841;SDS011;1936;47.074;15.336;2023-05-14T07:44:32;4.27;;;3.87;;
3841;SDS011;1936;47.074;15.336;2023-05-14T07:46:35;3.87;;;3.47;;
3841;SDS011;1936;47.074;15.336;2023-05-14T07:48:39;4.13;;;3.73;;
3841;SDS011;1936;47.074;15.336;2023-05-14T07:50:42;4.90;;;4.50;;
3841;SDS011;1936;47.074;15.336;2023-05-14T07:52:45;4.47;;;4.07;;
3841;SDS011;1936;47.074;15.336;2023-05-14T07:54:49;4.80;;;4.40;;
3841;SDS011;1936;47.074;15.336;2023-05-14T07:56:53;4.30;;;3.90;;
3841;SDS011;1936;47.074;15.336;2023-05-14T07:58:59;4.60;;;4.30;;
3841;SDS011;1936;47.074;15.336;2023-05-14T08:01:02;4.27;;;3.87;;
3841;SDS011;1936;47.074;15.336;2023-05-14T08:03:07;3.60;;;3.30;;
3841;SDS011;1936;47.074;15.336;2023-05-14T08:05:11;3.93;;;3.53;;
3841;SDS011;1936;47.074;15.336;2023-05-14T08:07:14;3.13;;;2.83;;
3841;SDS011;1936;47.074;15.336;2023-05-14T08:09:18;3.23;;;2.93;;
3841;SDS011;1936;47.074;15.336;2023-05-14T08:11:21;2.77;;;2.57;;
3841;SDS011;1936;47.074;15.336;2023-05-14T08:13:24;3.50;;;3.20;;
3841;SDS011;1936;47.074;15.336;2023-05-14T08:15:29;2.80;;;2.60;;
3841;SDS011;1936;47.074;15.336;2023-05-14T08:17:32;3.00;;;2.80;;
3841;SDS011;1936;47.074;15.336;2023-05-14T08:19:36;3.33;;;2.33;;
3841;SDS011;1936;47.074;15.336;2023-05-14T08:21:39;2.60;;;2.40;;
3841;SDS011;1936;47.074;15.336;2023-05-14T08:23:43;2.40;;;2.20;;
3841;SDS011;1936;47.074;15.336;2023-05-14T08:25:46;1.70;;;1.60;;
3841;SDS011;1936;47.074;15.336;2023-05-14T08:27:50;1.60;;;1.50;;
3841;SDS011;1936;47.074;15.336;2023-05-14T08:29:54;2.10;;;1.90;;
3841;SDS011;1936;47.074;15.336;2023-05-14T08:31:59;1.70;;;1.53;;
3841;SDS011;1936;47.074;15.336;2023-05-14T08:34:20;2.27;;;2.17;;
3841;SDS011;1936;47.074;15.336;2023-05-14T08:36:23;2.03;;;1.93;;
3841;SDS011;1936;47.074;15.336;2023-05-14T08:38:27;2.17;;;1.97;;
3841;SDS011;1936;47.074;15.336;2023-05-14T08:40:30;2.20;;;2.00;;
3841;SDS011;1936;47.074;15.336;2023-05-14T08:42:34;2.93;;;2.73;;
3841;SDS011;1936;47.074;15.336;2023-05-14T08:44:43;2.37;;;2.20;;
3841;SDS011;1936;47.074;15.336;2023-05-14T08:46:51;2.60;;;2.40;;
3841;SDS011;1936;47.074;15.336;2023-05-14T08:48:59;5.30;;;2.33;;
3841;SDS011;1936;47.074;15.336;2023-05-14T08:51:06;2.50;;;2.30;;
3841;SDS011;1936;47.074;15.336;2023-05-14T08:53:10;1.87;;;1.77;;
3841;SDS011;1936;47.074;15.336;2023-05-14T08:55:14;2.40;;;2.20;;
3841;SDS011;1936;47.074;15.336;2023-05-14T08:57:17;2.47;;;1.87;;
3841;SDS011;1936;47.074;15.336;2023-05-14T08:59:25;2.70;;;2.50;;
3841;SDS011;1936;47.074;15.336;2023-05-14T09:01:28;1.97;;;1.87;;
3841;SDS011;1936;47.074;15.336;2023-05-14T09:03:32;1.70;;;1.60;;
3841;SDS011;1936;47.074;15.336;2023-05-14T09:05:37;1.90;;;1.70;;
3841;SDS011;1936;47.074;15.336;2023-05-14T09:07:42;1.40;;;1.30;;
3841;SDS011;1936;47.074;15.336;2023-05-14T09:09:45;1.47;;;1.37;;
3841;SDS011;1936;47.074;15.336;2023-05-14T09:11:50;1.67;;;1.57;;
3841;SDS011;1936;47.074;15.336;2023-05-14T09:13:54;2.97;;;1.70;;
3841;SDS011;1936;47.074;15.336;2023-05-14T09:15:57;1.30;;;1.20;;
3841;SDS011;1936;47.074;15.336;2023-05-14T09:18:03;1.97;;;1.77;;
3841;SDS011;1936;47.074;15.336;2023-05-14T09:20:07;1.30;;;1.20;;
3841;SDS011;1936;47.074;15.336;2023-05-14T09:22:14;1.60;;;1.50;;
3841;SDS011;1936;47.074;15.336;2023-05-14T09:24:19;2.00;;;1.90;;
3841;SDS011;1936;47.074;15.336;2023-05-14T09:26:24;1.70;;;1.50;;
3841;SDS011;1936;47.074;15.336;2023-05-14T09:28:28;2.77;;;1.50;;
3841;SDS011;1936;47.074;15.336;2023-05-14T09:30:32;1.40;;;1.30;;
3841;SDS011;1936;47.074;15.336;2023-05-14T09:32:37;1.50;;;1.40;;
3841;SDS011;1936;47.074;15.336;2023-05-14T09:34:42;1.63;;;1.53;;
3841;SDS011;1936;47.074;15.336;2023-05-14T09:36:46;1.90;;;1.40;;
3841;SDS011;1936;47.074;15.336;2023-05-14T09:38:50;2.83;;;2.63;;
3841;SDS011;1936;47.074;15.336;2023-05-14T09:40:54;3.27;;;2.63;;
3841;SDS011;1936;47.074;15.336;2023-05-14T09:42:57;9.97;;;5.50;;
3841;SDS011;1936;47.074;15.336;2023-05-14T09:45:02;6.17;;;3.93;;
3841;SDS011;1936;47.074;15.336;2023-05-14T09:47:06;5.13;;;3.27;;
3841;SDS011;1936;47.074;15.336;2023-05-14T09:49:10;8.10;;;2.77;;
3841;SDS011;1936;47.074;15.336;2023-05-14T09:51:13;2.60;;;1.70;;
3841;SDS011;1936;47.074;15.336;2023-05-14T09:53:18;1.83;;;1.73;;
3841;SDS011;1936;47.074;15.336;2023-05-14T09:55:23;1.73;;;1.63;;
3841;SDS011;1936;47.074;15.336;2023-05-14T09:57:28;1.40;;;1.30;;
3841;SDS011;1936;47.074;15.336;2023-05-14T09:59:31;2.40;;;1.23;;
3841;SDS011;1936;47.074;15.336;2023-05-14T10:01:34;1.23;;;1.13;;
3841;SDS011;1936;47.074;15.336;2023-05-14T10:03:39;2.57;;;1.57;;
3841;SDS011;1936;47.074;15.336;2023-05-14T10:05:46;1.43;;;1.33;;
3841;SDS011;1936;47.074;15.336;2023-05-14T10:07:52;1.30;;;1.20;;
3841;SDS011;1936;47.074;15.336;2023-05-14T10:10:00;3.27;;;1.63;;
3841;SDS011;1936;47.074;15.336;2023-05-14T10:12:08;1.80;;;1.57;;
3841;SDS011;1936;47.074;15.336;2023-05-14T10:14:13;1.57;;;1.47;;
3841;SDS011;1936;47.074;15.336;2023-05-14T10:16:20;1.43;;;1.33;;
3841;SDS011;1936;47.074;15.336;2023-05-14T10:18:30;2.50;;;1.27;;
3841;SDS011;1936;47.074;15.336;2023-05-14T10:20:38;2.13;;;1.43;;
3841;SDS011;1936;47.074;15.336;2023-05-14T10:22:42;1.60;;;1.50;;
3841;SDS011;1936;47.074;15.336;2023-05-14T10:24:45;1.23;;;1.13;;
3841;SDS011;1936;47.074;15.336;2023-05-14T10:26:52;1.30;;;1.20;;
3841;SDS011;1936;47.074;15.336;2023-05-14T10:28:57;1.40;;;1.03;;
3841;SDS011;1936;47.074;15.336;2023-05-14T10:31:01;1.40;;;1.30;;
3841;SDS011;1936;47.074;15.336;2023-05-14T10:33:05;1.83;;;1.40;;
3841;SDS011;1936;47.074;15.336;2023-05-14T10:35:14;1.00;;;0.90;;
3841;SDS011;1936;47.074;15.336;2023-05-14T10:37:19;1.20;;;1.10;;
3841;SDS011;1936;47.074;15.336;2023-05-14T10:39:36;1.23;;;1.13;;
3841;SDS011;1936;47.074;15.336;2023-05-14T10:41:42;5.10;;;1.10;;
3841;SDS011;1936;47.074;15.336;2023-05-14T10:43:46;1.30;;;1.20;;
3841;SDS011;1936;47.074;15.336;2023-05-14T10:45:51;1.47;;;1.37;;
3841;SDS011;1936;47.074;15.336;2023-05-14T10:47:55;1.23;;;1.07;;
3841;SDS011;1936;47.074;15.336;2023-05-14T10:50:00;1.40;;;1.20;;
3841;SDS011;1936;47.074;15.336;2023-05-14T10:52:06;1.20;;;1.10;;
3841;SDS011;1936;47.074;15.336;2023-05-14T10:54:10;1.30;;;1.20;;
3841;SDS011;1936;47.074;15.336;2023-05-14T10:56:14;1.43;;;1.30;;
3841;SDS011;1936;47.074;15.336;2023-05-14T10:58:17;1.40;;;1.03;;
3841;SDS011;1936;47.074;15.336;2023-05-14T11:00:21;1.20;;;0.97;;
3841;SDS011;1936;47.074;15.336;2023-05-14T11:02:30;1.73;;;1.43;;
3841;SDS011;1936;47.074;15.336;2023-05-14T11:04:35;1.20;;;1.10;;
3841;SDS011;1936;47.074;15.336;2023-05-14T11:06:38;1.30;;;1.07;;
3841;SDS011;1936;47.074;15.336;2023-05-14T11:08:44;1.63;;;1.23;;
3841;SDS011;1936;47.074;15.336;2023-05-14T11:10:47;1.23;;;1.10;;
3841;SDS011;1936;47.074;15.336;2023-05-14T11:12:51;4.37;;;1.23;;
3841;SDS011;1936;47.074;15.336;2023-05-14T11:14:55;0.90;;;0.80;;
3841;SDS011;1936;47.074;15.336;2023-05-14T11:17:00;9.03;;;1.47;;
3841;SDS011;1936;47.074;15.336;2023-05-14T11:19:05;1.43;;;0.70;;
3841;SDS011;1936;47.074;15.336;2023-05-14T11:21:11;1.27;;;1.17;;
3841;SDS011;1936;47.074;15.336;2023-05-14T11:23:15;4.00;;;0.77;;
3841;SDS011;1936;47.074;15.336;2023-05-14T11:25:18;1.17;;;0.80;;
3841;SDS011;1936;47.074;15.336;2023-05-14T11:27:23;1.13;;;0.80;;
3841;SDS011;1936;47.074;15.336;2023-05-14T11:29:26;0.90;;;0.80;;
3841;SDS011;1936;47.074;15.336;2023-05-14T11:31:30;1.23;;;1.13;;
3841;SDS011;1936;47.074;15.336;2023-05-14T11:33:34;0.80;;;0.73;;
3841;SDS011;1936;47.074;15.336;2023-05-14T11:35:39;1.30;;;1.00;;
3841;SDS011;1936;47.074;15.336;2023-05-14T11:37:48;1.02;;;0.80;;
3841;SDS011;1936;47.074;15.336;2023-05-14T11:39:53;1.00;;;0.80;;
3841;SDS011;1936;47.074;15.336;2023-05-14T11:41:57;1.23;;;0.90;;
3841;SDS011;1936;47.074;15.336;2023-05-14T11:44:04;1.33;;;1.00;;
3841;SDS011;1936;47.074;15.336;2023-05-14T11:46:14;1.30;;;1.20;;
3841;SDS011;1936;47.074;15.336;2023-05-14T11:48:19;1.83;;;1.33;;
3841;SDS011;1936;47.074;15.336;2023-05-14T11:50:23;0.80;;;0.80;;
3841;SDS011;1936;47.074;15.336;2023-05-14T11:52:28;1.30;;;0.90;;
3841;SDS011;1936;47.074;15.336;2023-05-14T11:54:32;1.00;;;0.80;;
3841;SDS011;1936;47.074;15.336;2023-05-14T11:56:36;1.33;;;1.00;;
3841;SDS011;1936;47.074;15.336;2023-05-14T11:58:39;1.00;;;0.80;;
3841;SDS011;1936;47.074;15.336;2023-05-14T12:00:43;0.90;;;0.90;;
3841;SDS011;1936;47.074;15.336;2023-05-14T12:02:47;1.00;;;0.80;;
3841;SDS011;1936;47.074;15.336;2023-05-14T12:04:50;1.47;;;0.87;;
3841;SDS011;1936;47.074;15.336;2023-05-14T12:06:56;1.07;;;0.90;;
3841;SDS011;1936;47.074;15.336;2023-05-14T12:09:04;1.23;;;1.07;;
3841;SDS011;1936;47.074;15.336;2023-05-14T12:11:08;1.17;;;1.03;;
3841;SDS011;1936;47.074;15.336;2023-05-14T12:13:13;1.20;;;1.10;;
3841;SDS011;1936;47.074;15.336;2023-05-14T12:15:17;1.50;;;1.10;;
3841;SDS011;1936;47.074;15.336;2023-05-14T12:17:22;2.60;;;1.13;;
3841;SDS011;1936;47.074;15.336;2023-05-14T12:19:26;2.43;;;0.90;;
3841;SDS011;1936;47.074;15.336;2023-05-14T12:21:31;1.57;;;1.10;;
3841;SDS011;1936;47.074;15.336;2023-05-14T12:23:37;1.03;;;0.80;;
3841;SDS011;1936;47.074;15.336;2023-05-14T12:25:49;1.13;;;0.70;;
3841;SDS011;1936;47.074;15.336;2023-05-14T12:27:53;1.50;;;0.80;;
3841;SDS011;1936;47.074;15.336;2023-05-14T12:29:59;0.97;;;0.80;;